CheckWX is a tool to help pilots better visualize weather data.  It is not intended as a substitute for an official pre-flight weather briefing.

22:46:14 UTC

KMKE METAR
General Mitchell International Airport
Milwaukee, Wisconsin, USA
Current

54 mins ago

KMKE 242152Z 01011KT 10SM FEW130 OVC250 03/M01 A2989 RMK AO2 SLP127 T00281011
Observed
Feb-24 @ 21:52 UTC
Wind
  • 010° at 11 KTS
Visibility
10 SM
Flight Rules
VFR
Cloud Levels
  • Few at 13,000' AGL
  • Overcast at 25,000' AGL
Temperature
C / 37°F
Dewpoint
-1°C / 30°F
Humidity
75%
Altimeter
29.89" Hg
Pressure
1012.22 hPa
Previous

2 hours ago

KMKE 242052Z 02010KT 10SM SCT130 BKN180 OVC250 03/M01 A2989 RMK AO2 SLP127 T00281011 56012
Observed
Feb-24 @ 20:52 UTC
Wind
  • 020° at 10 KTS
Visibility
10 SM
Flight Rules
VFR
Cloud Levels
  • Scattered at 13,000' AGL
  • Broken at 18,000' AGL
  • Overcast at 25,000' AGL
Temperature
C / 37°F
Dewpoint
-1°C / 30°F
Humidity
75%
Altimeter
29.89" Hg
Pressure
1012.22 hPa
Previous

3 hours ago

KMKE 241952Z 02011KT 10SM FEW140 BKN180 OVC250 03/M02 A2989 RMK AO2 SLP128 T00281017
Observed
Feb-24 @ 19:52 UTC
Wind
  • 020° at 11 KTS
Visibility
10 SM
Flight Rules
VFR
Cloud Levels
  • Few at 14,000' AGL
  • Broken at 18,000' AGL
  • Overcast at 25,000' AGL
Temperature
C / 37°F
Dewpoint
-2°C / 28°F
Humidity
70%
Altimeter
29.89" Hg
Pressure
1012.22 hPa